Jemez Springs, Valles Caldera, New Mexico Weather observations

Data are for 10 minute period ending at time listed.
 Day   Time   Solar   Ave.   Ave.  Ave.  Vector  Max.   Baro.   Total    
  of    of     Rad.   Air    Rel.  Wind   Wind   Wind  Press.  Precip.   
Year   Day            Temp.  Hum.  Speed  Dir.   Gust                    
2015   (MST)  Kw/m2    F      %     mph   deg.    mph    mb.     in.     
-------------------------------------------------------------------------
  26   22:30   0.00   40.4    54    8.3     5    15.5   816.2    0.00 
  26   22:40   0.00   40.5    53    7.6     3    15.5   816.3    0.00 
  26   22:50   0.00   39.9    55    6.5     2    10.8   816.3    0.00 
  26   23:00   0.00   39.8    55    7.2     9    13.7   816.3    0.00 
  26   23:10   0.00   39.5    56    6.0     4    11.7   816.2    0.00 
  26   23:20   0.00   39.4    56    7.8    12    11.9   816.3    0.00 
  26   23:30   0.00   39.2    56    6.3     6    11.9   816.3    0.00 
  26   23:40   0.00   39.1    56    6.6     5    14.3   816.3    0.00 
  26   23:50   0.00   39.1    56    6.3    10    10.2   816.3    0.00 
  27    0:00   0.00   39.1    56    6.5     7    14.3   816.3    0.00 
  27    0:10   0.00   39.1    56    6.5     5    11.3   816.2    0.00 
  27    0:20   0.00   39.1    56    5.8     4    11.3   816.2    0.00 
  27    0:30   0.00   39.0    56    5.7     7    10.8   816.2    0.00 
  27    0:40   0.00   38.9    56    5.8     3    10.8   816.3    0.00 
  27    0:50   0.00   38.9    56    6.6    10    13.1   816.2    0.00 
  27    1:00   0.00   38.9    56    7.1     8    14.9   816.1    0.00 
  27    1:10   0.00   38.8    56    7.2     7    13.7   816.1    0.00 
  27    1:20   0.00   38.8    56    6.6     8    14.3   816.1    0.00 
  27    1:30   0.00   38.7    56    6.4     9    12.5   816.1    0.00 
  27    1:40   0.00   38.6    56    6.2     7    10.2   816.1    0.00 
  27    1:50   0.00   38.7    56    7.1     9    14.3   816.0    0.00 
  27    2:00   0.00   38.5    56    7.1    10    12.5   816.0    0.00 
  27    2:10   0.00   38.6    56    7.8    12    12.5   815.9    0.00 
  27    2:20   0.00   38.3    56    7.1    10    13.7   816.0    0.00 
  27    2:30   0.00   38.4    56    6.6     4    12.5   815.9    0.00 
  27    2:40   0.00   38.4    56    5.8   358    10.8   816.0    0.00 
  27    2:50   0.00   38.3    56    5.0   355    10.2   816.0    0.00 
  27    3:00   0.00   38.4    56    5.7     6     9.6   815.9    0.00 
  27    3:10   0.00   38.4    55    6.8    13    13.7   815.8    0.00 
  27    3:20   0.00   38.3    55    5.6     8    10.2   815.8    0.00 
  27    3:30   0.00   38.1    56    6.7     9    12.5   815.8    0.00 
  27    3:40   0.00   38.0    56    6.5     6    13.1   815.7    0.00 
  27    3:50   0.00   37.9    56    7.0     8    12.5   815.6    0.00 
  27    4:00   0.00   37.6    57    6.7     9    14.9   815.6    0.00 
  27    4:10   0.00   37.4    57    7.1    11    13.7   815.5    0.00 
  27    4:20   0.00   37.5    57    6.8    13    13.1   815.4    0.00 
  27    4:30   0.00   37.6    57    6.2    10    11.9   815.3    0.00 
  27    4:40   0.00   37.6    56    6.6    14    13.4   815.3    0.00 
  27    4:50   0.00   37.7    56    7.1    10    14.9   815.3    0.00 
  27    5:00   0.00   37.7    56    6.4     8    13.1   815.1    0.00 
  27    5:10   0.00   37.4    56    6.1     9    10.8   815.0    0.00 
  27    5:20   0.00   37.4    56    6.8     1    12.5   815.0    0.00 
  27    5:30   0.00   37.6    56    7.8    11    13.1   814.9    0.00 
  27    5:40   0.00   37.4    56    7.3     9    17.9   814.9    0.00 
  27    5:50   0.00   37.3    56    7.6     9    14.9   815.0    0.00 
  27    6:00   0.00   37.3    56    5.8     5    14.9   815.0    0.00 
  27    6:10   0.00   37.3    56    5.3     4    11.3   815.2    0.00 
  27    6:20   0.00   37.0    56    4.9   350    10.8   815.4    0.00 
  27    6:30   0.00   36.7    57    5.2   353     9.0   815.5    0.00 
  27    6:40   0.00   36.5    57    5.5   359    10.8   815.7    0.00 
  27    6:50   0.00   36.1    58    5.9    11    11.3   815.7    0.00 
  27    7:00   0.00   35.9    58    6.5     9    11.9   815.7    0.00 
  27    7:10   0.00   35.6    59    6.0   360    11.9   815.8    0.00 
  27    7:20   0.00   35.6    59    5.9     9    11.9   815.9    0.00 
  27    7:30   0.01   35.3    60    6.4     4    12.5   816.0    0.00 
  27    7:40   0.01   35.3    59    5.0   354     9.0   816.1    0.00 
  27    7:50   0.01   35.7    58    5.8     5    11.1   816.2    0.00 
  27    8:00   0.01   35.7    58    5.6     9    11.3   816.3    0.00 
  27    8:10   0.01   35.8    58    7.5     4    14.9   816.3    0.00 
  27    8:20   0.02   36.1    57    7.2     7    12.5   816.3    0.00 
  27    8:30   0.02   36.5    56    6.9     4    11.9   816.3    0.00 
  27    8:40   0.10   37.9    53    8.1    16    13.7   816.4    0.00 
  27    8:50   0.28   41.4    47    6.1    26    13.7   816.3    0.00 
  27    9:00   0.32   43.1    44    7.3    23    13.7   816.2    0.00 
  27    9:10   0.35   44.8    42    6.8    26    10.8   816.2    0.00 
  27    9:20   0.38   46.3    39    6.9    26    10.8   816.2    0.00 
  27    9:30   0.40   47.8    38    6.4    30    11.3   816.2    0.00 
  27    9:40   0.43   49.9    34    4.0    51     8.4   816.1    0.00 
  27    9:50   0.45   51.4    33    3.9    48     6.6   816.2    0.00 
  27   10:00   0.47   53.6    31    2.9    64     5.4   816.0    0.00 
  27   10:10   0.50   54.2    30    3.2   140     5.4   816.0    0.00 
  27   10:20   0.52   54.4    29    4.3   159     6.6   816.0    0.00 
  27   10:30   0.54   55.6    29    7.2   170    11.9   816.0    0.00 
  27   10:40   0.56   54.5    29    9.2   180    13.7   816.0    0.00 
  27   10:50   0.58   54.7    29    8.4   175    12.5   815.9    0.00 
  27   11:00   0.59   55.0    29    8.2   180    11.9   815.7    0.00 
  27   11:10   0.60   56.7    27    6.4   178     9.6   815.5    0.00 
  27   11:20   0.60   57.1    26    8.0   180    12.5   815.4    0.00 
  27   11:30   0.61   57.8    26    7.0   197    11.3   815.2    0.00 
  27   11:40   0.62   57.4    27    7.7   193    14.3   815.1    0.00 
  27   11:50   0.63   57.1    28    7.2   198    12.5   814.9    0.00 
  27   12:00   0.63   57.9    28    8.2   186    14.3   814.7    0.00 
  27   12:10   0.60   58.7    28    8.7   190    15.5   814.5    0.00 
  27   12:20   0.63   58.1    28    8.7   181    15.5   814.4    0.00 
  27   12:30   0.63   57.1    29   11.3   178    16.7   814.3    0.00 
  27   12:40   0.62   56.7    30   10.5   184    16.7   814.2    0.00 
  27   12:50   0.62   57.8    30    8.4   183    13.7   814.1    0.00 
  27   13:00   0.61   58.3    29    8.5   196    12.5   813.8    0.00 
  27   13:10   0.60   59.1    29    6.5   164    11.3   813.6    0.00 
  27   13:20   0.61   59.9    28    7.3   176    12.5   813.4    0.00 
  27   13:30   0.24   58.8    30    8.1   166    12.5   813.3    0.00 
  27   13:40   0.31   58.3    30    6.9   167    11.3   813.2    0.00 
  27   13:50   0.33   58.8    30    5.5   170    10.2   813.0    0.00 
  27   14:00   0.38   59.1    31    6.1   168    11.3   812.8    0.00 
  27   14:10   0.42   60.0    30    5.3   146     8.4   812.7    0.00 
  27   14:20   0.49   60.7    29    4.8   151     8.1   812.6    0.00 
  27   14:30   0.46   61.2    28    4.7   146     7.8   812.5    0.00 
  27   14:40   0.41   61.0    29    5.7   174    10.8   812.6    0.00 
  27   14:50   0.27   61.0    30    5.6   229    10.8   812.6    0.00 
  27   15:00   0.40   60.9    31    5.7   320    10.8   812.7    0.00 
  27   15:10   0.36   61.1    31    3.7    42     8.1   812.6    0.01 
  27   15:20   0.44   61.1    32    4.9   275     9.6   812.5    0.00 
  27   15:30   0.28   61.4    32    3.5   241     6.6   812.3    0.00 
  27   15:40   0.32   62.1    32    3.0   216     6.6   812.3    0.00 
  27   15:50   0.36   61.4    33    6.3   243    10.8   812.5    0.00 
  27   16:00   0.32   60.5    34    4.4   212    11.3   812.5    0.00 
  27   16:10   0.16   58.8    36    5.7   232    16.1   812.6    0.00 
  27   16:20   0.09   56.3    40    6.8    23    13.7   812.9    0.00 
  27   16:30   0.06   54.9    44    7.8   354    16.1   813.0    0.01 
  27   16:40   0.05   54.2    46    7.9   337    14.9   813.0    0.00 
  27   16:50   0.04   53.9    48    8.5   321    15.5   813.1    0.00 
  27   17:00   0.03   53.5    48    7.2   334    14.3   813.2    0.00 
  27   17:10   0.02   53.4    48    5.0     5    10.8   813.2    0.00 
  27   17:20   0.01   53.2    46    4.6    18     9.6   813.2    0.00 
  27   17:30   0.01   53.2    44    6.5    48    13.7   813.1    0.00 
  27   17:40   0.00   53.1    46    4.4    26     9.0   813.1    0.00 
  27   17:50   0.00   52.6    46    4.6    25    10.8   813.1    0.00 
  27   18:00   0.00   52.1    47    3.3   358     6.0   813.1    0.00 
  27   18:10   0.00   51.1    49    2.8     5     6.6   813.0    0.00 
  27   18:20   0.00   50.3    50    1.9   344     4.8   813.0    0.00 
  27   18:30   0.00   48.3    54    1.1   205     2.4   813.0    0.00 
  27   18:40   0.00   46.9    57    0.0    69     1.2   813.2    0.00 
  27   18:50   0.00   45.5    60    1.0    38     3.6   813.4    0.00 
  27   19:00   0.00   44.2    62    2.4    16     4.2   813.5    0.00 
  27   19:10   0.00   44.0    63    2.4    45     3.9   813.6    0.00 
  27   19:20   0.00   42.5    66    4.1    26     7.2   813.6    0.00 
  27   19:30   0.00   42.3    67    3.4    38     5.4   813.6    0.00 
  27   19:40   0.00   42.4    66    4.2    48     7.2   813.6    0.00 
  27   19:50   0.00   42.4    66    3.6    36     6.6   813.6    0.00 
  27   20:00   0.00   42.2    67    4.7   334     8.4   813.5    0.00 
  27   20:10   0.00   43.3    64    6.4     1    11.9   813.7    0.00 
  27   20:20   0.00   43.2    64    6.5    16    11.3   813.7    0.00 
  27   20:30   0.00   42.7    64    6.2     8    10.8   813.6    0.00 
  27   20:40   0.00   42.1    65    6.5    16    10.8   813.6    0.00 
  27   20:50   0.00   41.4    67    6.7    18    10.8   813.7    0.00 
  27   21:00   0.00   41.9    66    5.9   356    10.8   813.5    0.00 
  27   21:10   0.00   42.1    65    6.9     1    11.9   813.4    0.00 
  27   21:20   0.00   41.9    65    6.6   352    12.5   813.4    0.00 
  27   21:30   0.00   41.6    66    6.2     3    10.2   813.5    0.00 
  27   21:40   0.00   40.9    67    7.6    10    12.5   813.5    0.00 
  27   21:50   0.00   40.8    67    6.9   354    11.3   813.3    0.00 
  27   22:00   0.00   40.9    66    6.7     8    10.8   813.4    0.00 
  27   22:10   0.00   40.6    67    5.2     4    10.8   813.4    0.00 
  27   22:20   0.00   40.8    67    5.2     4     8.4   813.4    0.00 

Return to Jemez Springs, Valles Caldera graphs page.


Western Regional Climate Center,wrcc@dri.edu